• Join FlightAware (Why Join?)
  • Login
  • US Flag 
02:51PM EDT


 

Airport Tracker/Info


-or-


 

Live Flight TrackerFlight Track Log ✈ AAL1459 ✈ 13-Apr-2013 ✈ KBOS - KORD

Flight Track Log - Related Links

Times and Time Zones

All times are in EDT time to prevent confusion due to time zone crossing. See the AAL1459 flight status page for this flight to view local times or setup timezone preferences in your user account.

Time Position Orientation Groundspeed Altitude Reporting Facility
EDT Latitude Longitude Course Direction KTS MPH feet Rate Location/Type
02:19PM 42.3500 -71.0400 253° West 161 185 2,000  Level FlightAware
02:19PM 42.3390 -71.0590 232° Southwest 183 211 2,600 1,980 Climbing FlightAware
02:20PM 42.3190 -71.0810 219° Southwest 235 270 3,500 2,700 Climbing FlightAware
02:20PM 42.2940 -71.1080 219° Southwest 237 273 5,100 2,940 Climbing FlightAware
02:21PM 42.2800 -71.1420 241° Southwest 252 290 6,200 3,000 Climbing FlightAware
02:21PM 42.2850 -71.1890 278° West 258 297 7,900 3,720 Climbing FlightAware
02:21PM 42.2950 -71.2120 300° West 259 298 9,000 3,600 Climbing FlightAware
02:22PM 42.3070 -71.2240 324° Northwest 267 307 9,700 2,760 Climbing FlightAware
02:22PM 42.3620 -71.2490 341° North 287 330 11,800 2,700 Climbing FlightAware
02:23PM 42.4230 -71.2600 352° North 321 369 13,600 2,880 Climbing FlightAware
02:24PM 42.4840 -71.2620 359° North 335 386 15,700 2,880 Climbing FlightAware
02:24PM 42.5560 -71.2660 358° North 339 390 17,700 2,520 Climbing FlightAware
02:25PM 42.5920 -71.2840 340° North 324 373 18,700 2,280 Climbing FlightAware
02:25PM 42.6190 -71.3270 310° West 306 352 19,800 2,400 Climbing FlightAware
02:26PM 42.6530 -71.3980 303° West 321 369 21,500 2,700 Climbing FlightAware
02:27PM 42.6910 -71.4780 303° West 316 364 23,700 2,820 Climbing FlightAware
02:27PM 42.7230 -71.5420 304° West 315 362 25,500 2,280 Climbing FlightAware
02:28PM 42.7590 -71.6070 307° West 323 372 26,800 1,740 Climbing FlightAware
02:29PM 42.7990 -71.6790 307° West 334 384 28,000 1,620 Climbing FlightAware
02:30PM 42.8370 -71.7470 307° West 340 391 29,100 1,620 Climbing FlightAware
02:30PM 42.8750 -71.8170 307° West 347 399 30,200 1,620 Climbing FlightAware
02:31PM 42.9200 -71.8980 307° West 351 404 31,400 1,500 Climbing FlightAware
02:31PM 42.9300 -71.9240 298° West 334 384 31,700 1,260 Climbing FlightAware
02:32PM 42.9420 -72.0030 282° West 323 372 32,600 1,260 Climbing FlightAware
02:33PM 42.9490 -72.0980 276° West 328 377 33,500 1,200 Climbing FlightAware
02:33PM 42.9550 -72.1810 276° West 332 382 34,300 1,080 Climbing FlightAware
02:34PM 42.9610 -72.2630 276° West 337 388 35,000 1,020 Climbing FlightAware
02:35PM 42.9670 -72.3570 275° West 340 391 35,800 840 Climbing FlightAware
02:35PM 42.9730 -72.4440 275° West 346 398 36,200 660 Climbing FlightAware
02:36PM 42.9790 -72.5320 275° West 353 406 36,700 600 Climbing FlightAware
02:37PM 42.9860 -72.6330 275° West 361 415 37,100 480 Climbing FlightAware
02:37PM 42.9920 -72.7280 275° West 368 423 37,400 540 Climbing FlightAware
02:38PM 42.9980 -72.8280 275° West 371 427 37,900 420 Climbing FlightAware
02:39PM 43.0040 -72.9200 275° West 367 422 38,000 60 Climbing FlightAware
02:40PM 43.0100 -73.0270 274° West 365 420 38,000  Level FlightAware
02:40PM 43.0160 -73.1150 275° West 366 421 38,000  Level FlightAware
02:41PM 43.0190 -73.1770 274° West 366 421 38,000  Level FlightAware
02:42PM 43.0260 -73.2860 275° West 368 423 38,000  Level FlightAware
02:42PM 43.0310 -73.3790 274° West 369 425 38,000  Level FlightAware
02:43PM 43.0360 -73.4550 275° West 370 426 38,000  Level FlightAware
02:44PM 43.0460 -73.6380 274° West 375 432 38,000  Level FlightAware
02:45PM 43.0510 -73.7350 274° West 375 432 38,000  Level FlightAware
02:45PM 43.0570 -73.8300 275° West 377 434 38,000  Level FlightAware
02:46PM 43.0620 -73.9360 274° West 379 436 38,000  Level FlightAware
02:47PM 43.0680 -74.0410 275° West 380 437 38,000  Level FlightAware
02:47PM 43.0710 -74.1100 273° West 380 437 38,000  Level FlightAware
02:48PM 43.0780 -74.2350 274° West 380 437 38,000  Level FlightAware
02:49PM 43.0830 -74.3390 274° West 379 436 38,000  Level FlightAware
02:50PM 43.0870 -74.4280 274° West 376 433 38,000  Level FlightAware
02:50PM 43.0910 -74.5070 274° West 376 433 38,000  Level FlightAware
02:51PM 43.0970 -74.6290 274° West 376 433 38,000  Level FlightAware
02:52PM 43.1020 -74.7230 274° West 375 432 38,000  Level FlightAware
02:52PM 43.1070 -74.8310 274° West 374 430 38,000  Level FlightAware
02:53PM 43.1110 -74.9250 273° West 374 430 38,000  Level FlightAware
02:54PM 43.1150 -75.0180 273° West 372 428 38,000  Level FlightAware
02:55PM 43.1190 -75.1240 273° West 372 428 38,000  Level FlightAware
02:55PM 43.1230 -75.2190 273° West 373 429 38,000  Level FlightAware
02:56PM 43.1280 -75.3250 274° West 374 430 38,000  Level FlightAware
02:57PM 43.1320 -75.4180 273° West 373 429 38,000  Level FlightAware
02:57PM 43.1350 -75.5100 273° West 374 430 38,000  Level FlightAware
02:58PM 43.1390 -75.6200 273° West 384 442 38,000  Level FlightAware
02:59PM 43.1430 -75.7180 273° West 385 443 38,000  Level FlightAware
02:59PM 43.1470 -75.8260 273° West 383 441 38,000  Level FlightAware
03:00PM 43.1510 -75.9230 273° West 378 435 38,000  Level FlightAware
03:01PM 43.1540 -76.0230 272° West 374 430 38,000  Level FlightAware
03:02PM 43.1580 -76.1240 273° West 374 430 38,000  Level FlightAware
03:02PM 43.1610 -76.2180 273° West 377 434 38,000  Level FlightAware
03:03PM 43.1610 -76.3270 270° West 379 436 38,000  Level FlightAware
03:04PM 43.1600 -76.4230 269° West 380 437 38,000  Level FlightAware
03:04PM 43.1600 -76.5290 270° West 382 440 38,000  Level FlightAware
03:05PM 43.1600 -76.6530 270° West 384 442 38,000  Level FlightAware
03:06PM 43.1600 -76.7620 270° West 388 447 38,000  Level FlightAware
03:07PM 43.1590 -76.8590 269° West 388 447 38,000  Level FlightAware
03:07PM 43.1590 -76.9700 270° West 385 443 38,000  Level FlightAware
03:08PM 43.1580 -77.0610 269° West 387 445 38,000  Level FlightAware
03:09PM 43.1570 -77.1460 269° West 387 445 38,000  Level FlightAware
03:09PM 43.1560 -77.2630 269° West 385 443 38,000  Level FlightAware
03:10PM 43.1550 -77.3580 269° West 383 441 38,000  Level FlightAware
03:11PM 43.1550 -77.4500 270° West 383 441 38,000  Level FlightAware
03:11PM 43.1540 -77.5650 269° West 385 443 38,000  Level FlightAware
03:12PM 43.1520 -77.6620 268° West 386 444 38,000  Level FlightAware
03:13PM 43.1510 -77.7720 269° West 388 447 38,000  Level FlightAware
03:14PM 43.1500 -77.8690 269° West 389 448 38,000  Level FlightAware
03:14PM 43.1480 -77.9680 268° West 389 448 38,000  Level FlightAware
03:15PM 43.1470 -78.0800 269° West 392 451 38,000  Level FlightAware
03:16PM 43.1450 -78.1790 268° West 393 452 38,000  Level FlightAware
03:16PM 43.1430 -78.2890 269° West 392 451 38,000  Level FlightAware
03:17PM 43.1410 -78.3900 268° West 392 451 38,000  Level FlightAware
03:18PM 43.1390 -78.4870 268° West 391 450 38,000  Level FlightAware
03:18PM 43.1360 -78.5990 268° West 392 451 38,000  Level FlightAware
03:19PM 43.1330 -78.7000 268° West 392 451 38,000  Level FlightAware
03:20PM 43.1300 -78.8010 268° West 391 450 38,000  Level FlightAware
03:21PM 43.1270 -78.9130 268° West 390 449 38,000  Level FlightAware
03:21PM 43.1240 -79.0110 268° West 389 448 38,000  Level FlightAware
03:22PM 43.1200 -79.1210 267° West 389 448 38,000  Level FlightAware
03:23PM 43.1170 -79.2210 268° West 389 448 38,000  Level FlightAware
03:23PM 43.1140 -79.3150 268° West 388 447 38,000  Level FlightAware
03:24PM 43.1100 -79.4280 267° West 388 447 38,000  Level FlightAware
03:25PM 43.1070 -79.5260 268° West 387 445 38,000  Level FlightAware
03:25PM 43.1030 -79.6350 267° West 386 444 38,000  Level FlightAware
03:26PM 43.0990 -79.7330 267° West 385 443 38,000  Level FlightAware
03:27PM 43.0960 -79.8290 268° West 386 444 38,000  Level FlightAware
03:28PM 43.0920 -79.9390 267° West 387 445 38,000  Level FlightAware
03:28PM 43.0880 -80.0350 267° West 392 451 38,000  Level FlightAware
03:29PM 43.0830 -80.1510 267° West 397 457 38,000  Level FlightAware
03:30PM 43.0790 -80.2490 267° West 399 459 38,000  Level FlightAware
03:30PM 43.0750 -80.3480 267° West 399 459 38,000  Level FlightAware
03:31PM 43.0700 -80.4640 267° West 399 459 38,000  Level FlightAware
03:32PM 43.0650 -80.5620 266° West 400 460 38,000  Level FlightAware
03:32PM 43.0610 -80.6570 267° West 399 459 38,000  Level FlightAware
03:33PM 43.0560 -80.7790 267° West 398 458 38,000  Level FlightAware
03:34PM 43.0510 -80.8800 266° West 397 457 38,000  Level FlightAware
03:35PM 43.0460 -80.9900 266° West 397 457 38,000  Level FlightAware
03:35PM 43.0410 -81.0920 266° West 396 456 38,000  Level FlightAware
03:36PM 43.0370 -81.1900 267° West 396 456 38,000  Level FlightAware
03:37PM 43.0360 -81.3060 269° West 394 453 38,000  Level FlightAware
03:37PM 43.0340 -81.4030 268° West 394 453 38,000  Level FlightAware
03:38PM 43.0320 -81.5170 269° West 393 452 38,000  Level FlightAware
03:39PM 43.0300 -81.6280 269° West 394 453 38,000  Level FlightAware
03:39PM 43.0270 -81.7270 268° West 395 455 38,000  Level FlightAware
03:40PM 43.0250 -81.8230 268° West 395 455 38,000  Level FlightAware
03:41PM 43.0230 -81.9380 269° West 395 455 38,000  Level FlightAware
03:41PM 43.0210 -82.0220 268° West 395 455 38,000  Level FlightAware
03:42PM 43.0180 -82.1290 268° West 395 455 38,000  Level FlightAware
03:43PM 43.0150 -82.2510 268° West 394 453 38,000  Level FlightAware
03:44PM 43.0130 -82.3310 268° West 394 453 38,000  Level FlightAware
03:44PM 43.0100 -82.4370 268° West 394 453 38,000  Level FlightAware
03:45PM 43.0080 -82.5210 268° West 398 458 38,000 -120 Level FlightAware
03:46PM 43.0040 -82.6560 268° West 398 458 37,900 -360 Descending FlightAware
03:46PM 43.0010 -82.7580 268° West 387 445 37,500 -720 Descending FlightAware
03:47PM 42.9980 -82.8480 267° West 371 427 37,000 -780 Descending FlightAware
03:48PM 42.9950 -82.9420 268° West 366 421 36,500 -720 Descending FlightAware
03:49PM 42.9920 -83.0400 268° West 370 426 36,000 -720 Descending FlightAware
03:49PM 42.9890 -83.1250 267° West 377 434 35,600 -720 Descending FlightAware
03:50PM 42.9850 -83.2510 268° West 377 434 35,000 -720 Descending FlightAware
03:50PM 42.9830 -83.3110 267° West 373 429 34,700 -780 Descending FlightAware
03:51PM 42.9780 -83.4350 267° West 381 438 34,000 -840 Descending FlightAware
03:52PM 42.9740 -83.5620 268° West 380 437 33,400 -780 Descending FlightAware
03:53PM 42.9700 -83.6580 267° West 369 425 32,900 -660 Descending FlightAware
03:53PM 42.9650 -83.7620 266° West 359 413 32,500 -540 Descending FlightAware
03:54PM 42.9570 -83.8520 263° West 360 414 32,200 -420 Descending FlightAware
03:55PM 42.9480 -83.9410 262° West 361 415 32,000 -180 Descending FlightAware
03:56PM 42.9380 -84.0410 262° West 361 415 32,000  Level FlightAware
03:56PM 42.9290 -84.1330 262° West 364 419 32,000  Level FlightAware
03:57PM 42.9190 -84.2360 262° West 366 421 32,000  Level FlightAware
03:58PM 42.9100 -84.3280 262° West 368 423 32,000  Level FlightAware
03:58PM 42.9010 -84.4190 262° West 369 425 32,000  Level FlightAware
03:59PM 42.8900 -84.5250 262° West 370 426 32,000  Level FlightAware
04:00PM 42.8810 -84.6130 262° West 370 426 32,000  Level FlightAware
04:00PM 42.8700 -84.7210 262° West 371 427 32,000  Level FlightAware
04:01PM 42.8610 -84.8120 262° West 371 427 32,000  Level FlightAware
04:02PM 42.8500 -84.9140 262° West 371 427 32,000  Level FlightAware
04:03PM 42.8390 -85.0100 261° West 370 426 32,000  Level FlightAware
04:03PM 42.8300 -85.1030 263° West 369 425 32,000  Level FlightAware
04:04PM 42.8190 -85.2040 262° West 360 414 32,000 -180 Level FlightAware
04:05PM 42.8090 -85.2920 261° West 354 407 31,800 -540 Descending FlightAware
04:05PM 42.8000 -85.3810 262° West 359 413 31,300 -900 Descending FlightAware
04:06PM 42.7890 -85.4810 262° West 358 412 30,600 -960 Descending FlightAware
04:07PM 42.7730 -85.5700 256° West 360 414 30,000 -1,020 Descending FlightAware
04:07PM 42.7560 -85.6710 257° West 363 418 29,200 -1,200 Descending FlightAware
04:08PM 42.7400 -85.7590 256° West 366 421 28,300 -1,500 Descending FlightAware
04:09PM 42.7240 -85.8460 256° West 370 426 27,200 -1,920 Descending FlightAware
04:10PM 42.7060 -85.9480 257° West 379 436 25,600 -2,400 Descending FlightAware
04:10PM 42.6880 -86.0430 256° West 371 427 23,800 -2,640 Descending FlightAware
04:11PM 42.6700 -86.1410 256° West 362 417 21,900 -2,580 Descending FlightAware
04:12PM 42.6530 -86.2320 256° West 350 403 20,200 -1,440 Descending FlightAware
04:12PM 42.6380 -86.3120 256° West 343 395 20,000 -1,020 Descending FlightAware
04:13PM 42.6210 -86.4050 256° West 338 389 18,800 -1,680 Descending FlightAware
04:14PM 42.6060 -86.4870 256° West 328 377 17,700 -1,560 Descending FlightAware
04:14PM 42.5890 -86.5740 255° West 328 377 16,600 -1,560 Descending FlightAware
04:15PM 42.5740 -86.6530 256° West 323 372 15,500 -1,560 Descending FlightAware
04:16PM 42.5620 -86.7170 256° West 313 360 14,700 -1,440 Descending FlightAware
04:17PM 42.5380 -86.8070 250° West 311 358 13,500 -1,440 Descending FlightAware
04:17PM 42.5220 -86.8660 250° West 307 353 12,700 -1,500 Descending FlightAware
04:18PM 42.4950 -86.9660 250° West 307 353 11,400 -1,440 Descending FlightAware
04:19PM 42.4760 -87.0370 250° West 304 350 10,600 -1,080 Descending FlightAware
04:19PM 42.4570 -87.1060 250° West 299 344 10,000 -540 Descending FlightAware
04:20PM 42.4430 -87.1570 250° West 296 341 10,000  Level FlightAware
04:20PM 42.4350 -87.1860 250° West 287 330 10,000  Level FlightAware
04:20PM 42.4240 -87.2260 250° West 256 295 10,000 -600 Level FlightAware
04:21PM 42.4140 -87.2640 250° West 242 278 9,500 -1,020 Descending FlightAware
04:21PM 42.3960 -87.3080 241° Southwest 250 288 9,000 -600 Descending FlightAware
04:22PM 42.3720 -87.3170 195° South 279 321 9,000  Level FlightAware
04:23PM 42.3140 -87.3160 179° South 268 308 9,000  Level FlightAware
04:23PM 42.2990 -87.3180 186° South 268 308 9,000  Level FlightAware
04:23PM 42.2730 -87.3220 186° South 265 305 9,000  Level FlightAware
04:24PM 42.2240 -87.3300 187° South 271 312 9,000 -300 Level FlightAware
04:24PM 42.1920 -87.3350 187° South 273 314 8,700 -720 Descending FlightAware
04:24PM 42.1830 -87.3360 185° South 272 313 8,600 -780 Descending FlightAware
04:25PM 42.1430 -87.3440 188° South 275 316 8,200 -600 Descending FlightAware
04:25PM 42.1060 -87.3510 188° South 275 316 8,000 -240 Descending FlightAware
04:26PM 42.0650 -87.3590 188° South 273 314 8,000  Level FlightAware
04:26PM 42.0400 -87.3630 187° South 268 308 8,000 -480 Level FlightAware
04:27PM 42.0000 -87.3770 195° South 242 278 7,600 -840 Descending FlightAware
04:27PM 41.9920 -87.3940 238° Southwest 231 266 7,400 -840 Descending FlightAware
04:27PM 41.9880 -87.4110 252° West 229 264 7,200 -600 Descending FlightAware
04:28PM 41.9840 -87.4460 261° West 211 243 7,000 -360 Descending FlightAware
04:28PM 41.9820 -87.4800 265° West 198 228 6,900 -600 Descending FlightAware
04:29PM 41.9830 -87.5120 272° West 201 231 6,500 -1,080 Descending FlightAware
04:29PM 41.9830 -87.5240 270° West 203 234 6,300 -1,200 Descending FlightAware
04:29PM 41.9840 -87.5700 272° West 203 234 5,600 -1,200 Descending FlightAware
04:30PM 41.9840 -87.5980 270° West 205 236 5,100 -1,320 Descending FlightAware
04:30PM 41.9840 -87.6420 270° West 211 243 4,400 -1,320 Descending FlightAware
04:31PM 41.9840 -87.6820 270° West 203 234 3,800 -1,380 Descending FlightAware
04:31PM 41.9840 -87.6970 270° West 201 231 3,500 -1,200 Descending FlightAware
04:31PM 41.9840 -87.7330 270° West 185 213 3,000 -1,020 Descending FlightAware
04:32PM 41.9840 -87.7660 270° West 171 197 2,500 -1,020 Descending FlightAware
04:32PM 41.9840 -87.7900 270° West 162 186 2,100 -780 Descending FlightAware
04:33PM 41.9840 -87.8170 270° West 137 158 1,800 -780 Descending FlightAware
04:33PM 41.9840 -87.8370 270° West 125 144 1,400 -720 Descending FlightAware
04:34PM 41.9840 -87.8560 270° West 123 142 1,200 -720 Descending FlightAware
04:34PM 41.9840 -87.8840 270° West 122 140 700 -840 Descending FlightAware
04:34PM 41.9840 -87.8900 270° West 120 138 600 -600 Descending FlightAware